الصفحة الرئيسية
METAR-TAF:

METAR-TAF

مطار :

مطار جنرال سانتوس الدولي

General Santos, الفلبين

دائرة عرض: 06-03-29N, خط طول: 125-05-46E, ارتفاع: 154 متر

مراقبة الطقس الحالي

تاريخ ووقت الإصدار 14ساعات و 8 دقيقة قبل الساعة 09:00UTC
ريح 6 عقدة من الجنوب
درجة الحرارة 28°درجة مئوية
الرطوبة 79%
ضغط 1010 hPa
الرؤية 10 كم أو أكثر
غيوم قليلة على ارتفاع 1800 قدم
ملبد بالغيوم على ارتفاع 8000 قدم
زخات من الأمطار الخفيفة

METAR: RPMR 280900Z 18006KT 9999 -SHRA FEW018 OVC080 28/24 Q1010 NOSIG RMK A2983

زمن: 07:08 (23:08 UTC)

توقعات

تاريخ ووقت الإصدار 6ساعات و 8 دقيقة قبل الساعة 17:00UTC
التوقعات صالحة من28 الساعة 18 UTC إلى 29 الساعة 18 UTC
ريح 8 عقدة من الشمال/الشمال الشرقي
الرؤية 10 كم أو أكثر
غيوم قليلة على ارتفاع 1800 قدم
غيوم مفككة على ارتفاع 8000 قدم
مؤقت
من 28 الساعة 18 UTC إلى 28 الساعة 24 UTC
ريح 5 عقدة من الشمال/الشمال الغربي
غيوم قليلة على ارتفاع 1800 قدم
ملبد بالغيوم على ارتفاع 8000 قدم

TAF: RPMR 281700Z 2818/2918 02008KT 9999 FEW018 BKN080 TEMPO 2818/2824 34005KT FEW018 OVC080

أرصاد الطقس والتوقعات من أكثر من 4000 مطار (تقارير الطقس للمطار METAR والتنبؤ بالطقس بالمطارTAF).

المحطات المتاحة هي النقط الصفراء والحمراء على الخريطة.

حرك المؤشر فوق النقطة لمعرفة اسم المحطة.

ثم انقر لمعرفة أرصاد وتوقعات الطقس.

لتغيير الخارطة: اضغط على الأزرار الخضراء مع رمز الصليب الأسود للتكبير. على الزر الأخضر مع شرطة للتصغير، أو على الأسهم الخضراء للخرائط المجاورة.


METAR-TAF: